Time;durP1;ratioP1;P1;durP2;ratioP2;P2;SDS_P1;SDS_P2;PMS_P1;PMS_P2;Temp;Humidity;BMP_temperature;BMP_pressure;BME280_temperature;BME280_humidity;BME280_pressure;Samples;Min_cycle;Max_cycle;Signal;HPM_P1;HPM_P2
2021/03/20 00:02:03;;;;;;;1.30;1.20;;;19.40;23.10;;;;;;5095045;28;20157;-51
2021/03/20 00:04:29;;;;;;;1.45;1.15;;;19.40;23.10;;;;;;5094785;28;20169;-51
2021/03/20 00:06:55;;;;;;;2.40;1.50;;;19.30;23.00;;;;;;5093657;28;20154;-52
2021/03/20 00:09:25;;;;;;;1.60;1.17;;;19.40;23.10;;;;;;5094803;28;20201;-51
2021/03/20 00:11:52;;;;;;;1.55;1.45;;;19.30;23.00;;;;;;5095251;28;20454;-51
2021/03/20 00:14:20;;;;;;;1.63;0.85;;;19.30;23.00;;;;;;5092831;28;20197;-52
2021/03/20 00:16:46;;;;;;;1.80;1.48;;;19.30;23.10;;;;;;5094875;28;20153;-51
2021/03/20 00:19:13;;;;;;;1.43;1.23;;;19.30;23.10;;;;;;5094581;28;20157;-51
2021/03/20 00:21:39;;;;;;;1.20;1.00;;;19.30;23.00;;;;;;5094651;28;20478;-52
2021/03/20 00:24:05;;;;;;;1.77;1.37;;;19.30;23.00;;;;;;5094283;28;20188;-51
2021/03/20 00:26:31;;;;;;;1.15;1.05;;;19.30;23.10;;;;;;5094297;28;20543;-51
2021/03/20 00:28:57;;;;;;;1.37;1.27;;;19.30;23.00;;;;;;5093890;28;20284;-52
2021/03/20 00:31:26;;;;;;;2.20;1.42;;;19.30;23.10;;;;;;5094517;28;20164;-51
2021/03/20 00:33:51;;;;;;;1.50;1.20;;;19.30;23.10;;;;;;5094365;28;20211;-52
2021/03/20 00:36:20;;;;;;;2.90;1.20;;;19.30;23.10;;;;;;5094276;28;20608;-52
2021/03/20 00:38:46;;;;;;;1.27;1.00;;;19.30;23.10;;;;;;5092726;28;20170;-51
2021/03/20 00:41:12;;;;;;;1.33;1.23;;;19.30;23.00;;;;;;5094088;28;20158;-52
2021/03/20 00:43:39;;;;;;;0.80;0.80;;;19.30;23.00;;;;;;5094110;28;20162;-51
2021/03/20 00:46:08;;;;;;;1.83;1.50;;;19.30;23.00;;;;;;5093537;28;20389;-51
2021/03/20 00:48:36;;;;;;;1.50;1.40;;;19.30;23.00;;;;;;5092518;28;20572;-51
2021/03/20 00:51:03;;;;;;;1.30;1.20;;;19.30;23.00;;;;;;5093784;28;20158;-50
2021/03/20 00:53:29;;;;;;;1.02;0.93;;;19.30;23.00;;;;;;5093629;28;20181;-50
2021/03/20 00:55:55;;;;;;;1.35;1.25;;;19.30;23.00;;;;;;5093856;28;20154;-51
2021/03/20 00:58:36;;;;;;;1.92;1.10;;;19.30;23.00;;;;;;5092522;28;20589;-51
2021/03/20 01:01:14;;;;;;;1.55;1.25;;;19.30;23.00;;;;;;5091342;28;20209;-52
2021/03/20 01:03:41;;;;;;;1.83;1.38;;;19.30;23.00;;;;;;5073628;28;20172;-51
2021/03/20 01:06:13;;;;;;;1.42;1.05;;;19.30;23.00;;;;;;5073380;28;20204;-51
2021/03/20 01:08:39;;;;;;;1.52;1.30;;;19.30;23.00;;;;;;5073361;28;20243;-50
2021/03/20 01:11:09;;;;;;;1.80;1.48;;;19.30;23.00;;;;;;5073386;28;20155;-52
2021/03/20 01:13:34;;;;;;;1.80;1.20;;;19.30;23.00;;;;;;5072178;28;20206;-51
2021/03/20 01:16:00;;;;;;;1.07;1.00;;;19.30;23.00;;;;;;5072890;28;20162;-52
2021/03/20 01:18:26;;;;;;;2.80;1.07;;;19.30;23.00;;;;;;5073328;28;20165;-50
2021/03/20 01:20:52;;;;;;;1.00;0.90;;;19.30;23.00;;;;;;5071900;28;20417;-52
2021/03/20 01:23:18;;;;;;;1.38;0.98;;;19.30;23.00;;;;;;5073311;28;20495;-52
2021/03/20 01:25:44;;;;;;;1.60;1.00;;;19.30;23.00;;;;;;5073062;28;20598;-51
2021/03/20 01:28:10;;;;;;;2.20;1.23;;;19.30;23.00;;;;;;5073068;28;20201;-51
2021/03/20 01:30:46;;;;;;;1.30;1.20;;;19.30;23.00;;;;;;5072833;28;20189;-52
2021/03/20 01:33:12;;;;;;;1.45;1.27;;;19.20;23.00;;;;;;5073301;28;20208;-52
2021/03/20 01:35:38;;;;;;;2.80;1.30;;;19.30;23.10;;;;;;5073040;28;20581;-51
2021/03/20 01:38:04;;;;;;;1.13;1.03;;;19.30;23.00;;;;;;5073118;28;20640;-52
2021/03/20 01:40:35;;;;;;;1.55;1.40;;;19.30;23.00;;;;;;5073015;28;20151;-52
2021/03/20 01:43:04;;;;;;;1.10;1.00;;;19.30;23.00;;;;;;5073275;28;20166;-52
2021/03/20 01:45:36;;;;;;;1.75;1.20;;;19.30;23.00;;;;;;5072697;28;20163;-52
2021/03/20 01:48:12;;;;;;;1.10;1.00;;;19.30;23.00;;;;;;5073097;28;20261;-51
2021/03/20 01:50:47;;;;;;;1.48;1.38;;;19.30;22.90;;;;;;5073016;28;20150;-50
2021/03/20 01:53:21;;;;;;;1.25;1.10;;;19.30;22.90;;;;;;5072775;28;20248;-52
2021/03/20 01:55:50;;;;;;;1.10;1.00;;;19.20;22.90;;;;;;5073017;28;20149;-52
2021/03/20 01:58:16;;;;;;;1.77;1.00;;;19.30;23.00;;;;;;5071645;28;20246;-51
2021/03/20 02:00:44;;;;;;;1.00;0.85;;;19.20;23.00;;;;;;5072494;28;20170;-51
2021/03/20 02:03:20;;;;;;;1.17;1.10;;;19.20;23.00;;;;;;5089957;28;20273;-51
2021/03/20 02:05:47;;;;;;;1.15;1.05;;;19.20;22.90;;;;;;5097036;28;20154;-51
2021/03/20 02:08:18;;;;;;;1.67;1.15;;;19.20;22.90;;;;;;5097358;28;20220;-51
2021/03/20 02:10:46;;;;;;;1.33;1.10;;;19.20;22.90;;;;;;5097204;28;20150;-51
2021/03/20 02:13:43;;;;;;;1.23;1.13;;;19.20;22.90;;;;;;5097059;28;20530;-51
2021/03/20 02:16:09;;;;;;;1.75;1.30;;;19.20;22.90;;;;;;5096545;28;20521;-52
2021/03/20 02:18:50;;;;;;;2.33;1.40;;;19.20;22.90;;;;;;5097021;28;20158;-52
2021/03/20 02:21:36;;;;;;;1.13;0.90;;;19.20;22.90;;;;;;5096848;28;20161;-50
2021/03/20 02:24:04;;;;;;;1.23;1.13;;;19.20;22.90;;;;;;5096731;28;20149;-51
2021/03/20 02:26:50;;;;;;;1.15;1.05;;;19.20;22.90;;;;;;5096762;28;20206;-51
2021/03/20 02:29:29;;;;;;;1.40;1.30;;;19.20;22.90;;;;;;5096290;28;20189;-52
2021/03/20 02:32:13;;;;;;;2.03;1.30;;;19.20;22.90;;;;;;5096683;28;20149;-51
2021/03/20 02:34:45;;;;;;;1.48;1.00;;;19.20;22.90;;;;;;5096464;28;20219;-51
2021/03/20 02:37:34;;;;;;;1.33;1.23;;;19.20;23.00;;;;;;5096619;28;20168;-51
2021/03/20 02:40:32;;;;;;;1.60;1.40;;;19.20;23.00;;;;;;5085629;28;20182;-51
2021/03/20 02:43:15;;;;;;;1.20;1.10;;;19.20;23.00;;;;;;5068560;28;20181;-52
2021/03/20 02:46:00;;;;;;;1.27;0.93;;;19.20;22.90;;;;;;5095995;28;20252;-51
2021/03/20 02:48:36;;;;;;;1.23;1.00;;;19.20;22.90;;;;;;5096428;28;20227;-51
2021/03/20 02:51:09;;;;;;;1.35;1.20;;;19.20;22.90;;;;;;5096283;28;20236;-52
2021/03/20 02:54:01;;;;;;;1.50;1.13;;;19.20;23.00;;;;;;5096245;28;20150;-52
2021/03/20 02:56:36;;;;;;;1.38;0.98;;;19.20;22.90;;;;;;5081727;28;20691;-51
2021/03/20 02:59:10;;;;;;;0.95;0.85;;;19.20;23.00;;;;;;5095926;28;20514;-52
2021/03/20 03:01:37;;;;;;;1.27;1.17;;;19.20;23.00;;;;;;5096202;28;20161;-51
2021/03/20 03:04:05;;;;;;;0.98;0.88;;;19.20;23.00;;;;;;5094540;28;20180;-51
2021/03/20 03:06:53;;;;;;;1.52;1.38;;;19.20;23.00;;;;;;5096181;28;20176;-51
2021/03/20 03:09:33;;;;;;;1.50;1.20;;;19.20;23.00;;;;;;5095991;28;20439;-51
2021/03/20 03:12:05;;;;;;;1.10;1.00;;;19.20;23.00;;;;;;5096038;28;20177;-51
2021/03/20 03:14:36;;;;;;;1.15;1.05;;;19.20;23.00;;;;;;5095340;28;20554;-51
2021/03/20 03:17:03;;;;;;;0.93;0.82;;;19.20;23.00;;;;;;5094938;28;20153;-51
2021/03/20 03:19:31;;;;;;;1.23;1.13;;;19.20;23.00;;;;;;5095665;28;20163;-51
2021/03/20 03:22:00;;;;;;;1.42;1.20;;;19.20;23.00;;;;;;5095828;28;20183;-51
2021/03/20 03:24:28;;;;;;;1.02;0.93;;;19.20;23.00;;;;;;5095536;28;20654;-51
2021/03/20 03:27:07;;;;;;;1.20;1.02;;;19.20;23.00;;;;;;5095655;28;20154;-51
2021/03/20 03:29:34;;;;;;;1.30;1.20;;;19.20;23.00;;;;;;5095208;28;20158;-52
2021/03/20 03:32:14;;;;;;;1.25;1.15;;;19.20;22.90;;;;;;5094380;28;20154;-52
2021/03/20 03:34:42;;;;;;;1.20;1.10;;;19.20;22.90;;;;;;5093671;28;20185;-51
2021/03/20 03:37:17;;;;;;;0.80;0.80;;;19.20;22.90;;;;;;5095517;28;20158;-51
2021/03/20 03:39:53;;;;;;;1.40;1.23;;;19.20;22.90;;;;;;5094082;28;20169;-51
2021/03/20 03:42:21;;;;;;;1.00;0.90;;;19.20;22.90;;;;;;5095671;28;20153;-51
2021/03/20 03:44:49;;;;;;;1.13;1.02;;;19.20;23.00;;;;;;5093540;28;20174;-52
2021/03/20 03:47:18;;;;;;;1.50;1.40;;;19.20;22.90;;;;;;5095231;28;20513;-51
2021/03/20 03:49:48;;;;;;;1.23;1.13;;;19.20;22.90;;;;;;5095246;28;20154;-51
2021/03/20 03:52:15;;;;;;;1.40;1.30;;;19.20;22.90;;;;;;5094928;28;20234;-51
2021/03/20 03:54:41;;;;;;;1.48;1.30;;;19.20;22.90;;;;;;5093730;28;20161;-52
2021/03/20 03:57:31;;;;;;;1.50;0.80;;;19.20;22.90;;;;;;5095070;28;20213;-51
2021/03/20 04:00:18;;;;;;;0.88;0.88;;;19.20;22.90;;;;;;5094549;28;20312;-52
2021/03/20 04:02:55;;;;;;;1.33;1.23;;;19.20;22.90;;;;;;5094894;28;20214;-52
2021/03/20 04:05:33;;;;;;;1.80;1.33;;;19.20;22.90;;;;;;5094732;28;20194;-51
2021/03/20 04:08:13;;;;;;;1.23;1.00;;;19.10;22.80;;;;;;5093433;28;20659;-52
2021/03/20 04:11:00;;;;;;;1.02;0.90;;;19.20;22.90;;;;;;5094775;28;20153;-52
2021/03/20 04:14:01;;;;;;;1.23;1.13;;;19.30;22.90;;;;;;5093492;28;20169;-51
2021/03/20 04:16:39;;;;;;;1.10;1.00;;;19.30;22.90;;;;;;5094618;28;20150;-50
2021/03/20 04:19:20;;;;;;;2.65;1.23;;;19.30;22.90;;;;;;5093138;28;20207;-51
2021/03/20 04:22:10;;;;;;;1.25;1.15;;;19.30;22.90;;;;;;5094579;28;20240;-51
2021/03/20 04:25:05;;;;;;;1.08;0.95;;;19.30;22.90;;;;;;5093233;28;20213;-51
2021/03/20 04:27:34;;;;;;;1.73;1.27;;;19.30;22.90;;;;;;5094293;28;20190;-52
2021/03/20 04:30:09;;;;;;;1.30;1.20;;;19.30;22.90;;;;;;5092512;28;20197;-52
2021/03/20 04:32:59;;;;;;;2.67;1.17;;;19.30;22.90;;;;;;5094272;28;20169;-51
2021/03/20 04:35:54;;;;;;;2.10;1.30;;;19.30;22.90;;;;;;5094188;28;20146;-51
2021/03/20 04:38:21;;;;;;;1.20;1.10;;;19.30;22.90;;;;;;5093628;28;20193;-52
2021/03/20 04:41:09;;;;;;;1.10;1.00;;;19.30;22.90;;;;;;5094350;28;20154;-52
2021/03/20 04:43:37;;;;;;;1.35;1.25;;;19.30;22.90;;;;;;5092786;28;20203;-51
2021/03/20 04:46:06;;;;;;;1.77;1.60;;;19.30;22.90;;;;;;5093495;28;20158;-51
2021/03/20 04:48:36;;;;;;;2.17;1.33;;;19.30;22.90;;;;;;5094036;28;20284;-51
2021/03/20 04:51:26;;;;;;;1.35;1.10;;;19.30;22.90;;;;;;5094112;28;20203;-51
2021/03/20 04:53:54;;;;;;;1.60;1.25;;;19.30;22.90;;;;;;5093773;28;20508;-52
2021/03/20 04:56:22;;;;;;;1.23;1.10;;;19.30;22.90;;;;;;5093922;28;20165;-52
2021/03/20 04:58:52;;;;;;;2.10;1.10;;;19.30;22.90;;;;;;5093967;28;20158;-51
2021/03/20 05:01:32;;;;;;;1.55;1.02;;;19.30;22.90;;;;;;5093640;28;20156;-51
2021/03/20 05:04:02;;;;;;;1.48;1.38;;;19.30;22.90;;;;;;5092417;28;20541;-51
2021/03/20 05:06:29;;;;;;;1.27;1.13;;;19.30;22.90;;;;;;5093760;28;20158;-51
2021/03/20 05:09:06;;;;;;;1.40;1.10;;;19.30;22.90;;;;;;5093632;28;20192;-51
2021/03/20 05:11:39;;;;;;;1.17;1.08;;;19.30;22.90;;;;;;5093878;28;20224;-52
2021/03/20 05:14:14;;;;;;;1.55;0.95;;;19.30;22.90;;;;;;5093009;28;20157;-51
2021/03/20 05:16:52;;;;;;;1.10;1.00;;;19.30;23.00;;;;;;5093708;28;20572;-52
2021/03/20 05:19:20;;;;;;;1.80;1.38;;;19.30;22.90;;;;;;5093521;28;20568;-51
2021/03/20 05:21:49;;;;;;;1.10;0.90;;;19.20;22.90;;;;;;5093641;28;20173;-52
2021/03/20 05:24:25;;;;;;;1.45;0.90;;;19.30;22.90;;;;;;5093179;28;20177;-51
2021/03/20 05:26:52;;;;;;;1.10;1.00;;;19.30;22.90;;;;;;5092117;28;20204;-51
2021/03/20 05:29:18;;;;;;;1.33;1.17;;;19.20;22.80;;;;;;5092791;28;20198;-51
2021/03/20 05:31:44;;;;;;;0.80;0.80;;;19.30;22.90;;;;;;5092251;28;20164;-51
2021/03/20 05:34:24;;;;;;;1.52;1.00;;;19.30;22.90;;;;;;5093271;28;20185;-51
2021/03/20 05:36:51;;;;;;;1.40;1.30;;;19.30;22.90;;;;;;5093425;28;20157;-51
2021/03/20 05:39:17;;;;;;;0.80;0.80;;;19.30;22.90;;;;;;5092298;28;20214;-51
2021/03/20 05:42:14;;;;;;;1.10;1.00;;;19.30;22.90;;;;;;5093507;28;20539;-51
2021/03/20 05:45:05;;;;;;;1.15;1.05;;;19.30;22.90;;;;;;5092727;28;20738;-52
2021/03/20 05:47:33;;;;;;;1.05;0.95;;;19.30;22.90;;;;;;5093223;28;20189;-52
2021/03/20 05:50:08;;;;;;;0.88;0.88;;;19.30;22.90;;;;;;5093082;28;20636;-51
2021/03/20 05:52:55;;;;;;;3.75;1.42;;;19.30;22.90;;;;;;5093067;28;20564;-52
2021/03/20 05:55:46;;;;;;;1.67;0.88;;;19.30;22.80;;;;;;5093340;28;20240;-52
2021/03/20 05:58:49;;;;;;;1.55;1.10;;;19.30;23.30;;;;;;5092994;28;20158;-51
2021/03/20 06:01:24;;;;;;;1.15;1.02;;;19.30;22.80;;;;;;5092737;28;20154;-52
2021/03/20 06:04:08;;;;;;;1.50;1.10;;;19.30;22.80;;;;;;5093039;28;20240;-51
2021/03/20 06:06:46;;;;;;;1.08;0.98;;;19.30;22.80;;;;;;5093083;28;20204;-51
2021/03/20 06:09:45;;;;;;;1.10;1.00;;;19.30;22.80;;;;;;5092828;28;20189;-51
2021/03/20 06:12:48;;;;;;;1.25;1.00;;;19.30;22.80;;;;;;5091500;28;20162;-52
2021/03/20 06:15:38;;;;;;;1.20;1.10;;;19.30;22.80;;;;;;5092000;28;20154;-51
2021/03/20 06:18:06;;;;;;;0.98;0.90;;;19.30;22.80;;;;;;5092894;28;20158;-51
2021/03/20 06:20:53;;;;;;;1.52;1.02;;;19.30;22.80;;;;;;5091403;28;20185;-52
2021/03/20 06:23:36;;;;;;;1.00;0.90;;;19.30;22.80;;;;;;5092699;28;20150;-51
2021/03/20 06:26:13;;;;;;;1.83;1.20;;;19.30;22.80;;;;;;5092557;28;20301;-58
2021/03/20 06:29:01;;;;;;;1.20;1.00;;;19.30;22.80;;;;;;5091584;28;20205;-53
2021/03/20 06:31:39;;;;;;;1.13;1.00;;;19.30;22.80;;;;;;5092710;28;20181;-50
2021/03/20 06:34:15;;;;;;;1.55;1.30;;;19.30;22.80;;;;;;5092523;28;20150;-52
2021/03/20 06:36:43;;;;;;;1.17;1.08;;;19.30;22.70;;;;;;5092535;28;20149;-51
2021/03/20 06:39:32;;;;;;;1.20;1.10;;;19.30;22.80;;;;;;5092495;28;20158;-51
2021/03/20 06:42:10;;;;;;;1.33;0.90;;;19.30;22.80;;;;;;5092383;28;20485;-51
2021/03/20 06:44:40;;;;;;;0.80;0.80;;;19.30;22.80;;;;;;5091768;28;20559;-50
2021/03/20 06:47:25;;;;;;;1.00;0.75;;;19.30;22.80;;;;;;5092512;28;20158;-50
2021/03/20 06:50:08;;;;;;;1.13;1.02;;;19.30;22.80;;;;;;5093179;28;20150;-51
2021/03/20 06:52:36;;;;;;;1.83;1.50;;;19.30;22.80;;;;;;5096068;28;20150;-51
2021/03/20 06:55:25;;;;;;;1.40;1.10;;;19.30;22.80;;;;;;5096035;28;20177;-52
2021/03/20 06:57:50;;;;;;;0.93;0.73;;;19.30;22.80;;;;;;5096182;28;20150;-50
2021/03/20 07:00:25;;;;;;;0.90;0.80;;;19.30;22.80;;;;;;5094246;28;20269;-51
2021/03/20 07:03:06;;;;;;;1.42;1.25;;;19.30;23.30;;;;;;5095984;28;20201;-50
2021/03/20 07:05:50;;;;;;;1.05;0.95;;;19.30;22.80;;;;;;5095781;28;20169;-51
2021/03/20 07:08:52;;;;;;;1.30;1.20;;;19.30;22.80;;;;;;5094413;28;20217;-52
2021/03/20 07:11:27;;;;;;;1.30;0.82;;;19.30;22.80;;;;;;5063488;28;20260;-51
2021/03/20 07:13:56;;;;;;;2.17;1.20;;;19.40;22.80;;;;;;5095488;28;20533;-52
2021/03/20 07:16:24;;;;;;;0.70;0.70;;;19.40;22.80;;;;;;5095786;28;20154;-50
2021/03/20 07:18:53;;;;;;;1.50;1.20;;;19.40;22.80;;;;;;5095649;28;20158;-50
2021/03/20 07:21:37;;;;;;;1.10;1.00;;;19.40;22.70;;;;;;5094474;28;20168;-51
2021/03/20 07:24:30;;;;;;;0.70;0.70;;;19.40;22.70;;;;;;5094227;28;20153;-51
2021/03/20 07:27:03;;;;;;;1.40;1.27;;;19.40;22.70;;;;;;5095560;28;20193;-51
2021/03/20 07:29:47;;;;;;;0.80;0.80;;;19.40;22.60;;;;;;5095176;28;20142;-51
2021/03/20 07:32:35;;;;;;;0.70;0.70;;;19.40;22.60;;;;;;5095475;28;20170;-51
2021/03/20 07:35:15;;;;;;;1.20;0.90;;;19.40;22.60;;;;;;5095185;28;20153;-51
2021/03/20 07:37:43;;;;;;;1.10;1.00;;;19.50;22.60;;;;;;5095455;28;20233;-51
2021/03/20 07:40:17;;;;;;;0.80;0.80;;;19.50;22.60;;;;;;5095123;28;20177;-51
2021/03/20 07:42:43;;;;;;;1.10;1.00;;;19.50;22.60;;;;;;5095317;28;20164;-51
2021/03/20 07:45:17;;;;;;;1.23;0.90;;;19.50;22.60;;;;;;5093472;28;20166;-51
2021/03/20 07:47:58;;;;;;;0.90;0.80;;;19.50;22.50;;;;;;5095239;28;20265;-50
2021/03/20 07:50:40;;;;;;;1.15;0.80;;;19.50;22.50;;;;;;5095085;28;20664;-51
2021/03/20 07:53:13;;;;;;;0.90;0.63;;;19.60;22.50;;;;;;5094966;28;20180;-52
2021/03/20 07:55:57;;;;;;;1.60;0.80;;;19.50;22.50;;;;;;5093622;28;20191;-52
2021/03/20 07:58:35;;;;;;;1.55;1.45;;;19.60;22.60;;;;;;5093618;28;20170;-53
2021/03/20 08:01:05;;;;;;;1.13;1.02;;;19.60;22.40;;;;;;5092776;28;20252;-52
2021/03/20 08:03:45;;;;;;;1.10;1.00;;;19.60;22.40;;;;;;5094515;28;20173;-51
2021/03/20 08:06:28;;;;;;;1.30;1.10;;;19.60;22.40;;;;;;5094374;28;20169;-51
2021/03/20 08:09:29;;;;;;;1.15;1.05;;;19.60;22.40;;;;;;5091655;28;20215;-51
2021/03/20 08:11:57;;;;;;;1.05;0.82;;;19.60;22.40;;;;;;5012761;28;20180;-50
2021/03/20 08:14:49;;;;;;;0.77;0.77;;;19.60;22.40;;;;;;5062381;28;20182;-51
2021/03/20 08:17:21;;;;;;;0.80;0.80;;;19.60;22.40;;;;;;5074383;28;20151;-51
2021/03/20 08:19:48;;;;;;;1.23;1.13;;;19.60;22.40;;;;;;5074271;28;20158;-51
2021/03/20 08:22:32;;;;;;;1.08;0.85;;;19.60;22.40;;;;;;5074103;28;20151;-52
2021/03/20 08:25:25;;;;;;;0.85;0.85;;;19.60;22.40;;;;;;5074040;28;20205;-52
2021/03/20 08:28:00;;;;;;;1.00;0.90;;;19.60;23.00;;;;;;5074233;28;20178;-51
2021/03/20 08:30:50;;;;;;;1.00;0.90;;;19.70;22.40;;;;;;5072139;28;20212;-50
2021/03/20 08:33:59;;;;;;;1.00;0.80;;;19.60;22.40;;;;;;5074018;28;20238;-50
2021/03/20 08:36:41;;;;;;;0.80;0.80;;;19.60;22.40;;;;;;5073388;28;20179;-50
2021/03/20 08:39:28;;;;;;;0.93;0.85;;;19.70;22.40;;;;;;5072576;28;20177;-51
2021/03/20 08:42:18;;;;;;;1.33;1.00;;;19.70;22.40;;;;;;5072810;28;20190;-51
2021/03/20 08:44:50;;;;;;;1.13;1.02;;;19.70;22.40;;;;;;5073442;28;20237;-51
2021/03/20 08:47:47;;;;;;;1.00;0.70;;;19.70;22.40;;;;;;5073513;28;20260;-51
2021/03/20 08:50:45;;;;;;;0.80;0.80;;;19.70;22.40;;;;;;5073377;28;20632;-50
2021/03/20 08:53:23;;;;;;;0.73;0.73;;;19.70;22.30;;;;;;5042067;28;20209;-51
2021/03/20 08:56:04;;;;;;;1.10;1.00;;;19.70;22.30;;;;;;5073555;28;20233;-49
2021/03/20 08:58:38;;;;;;;0.70;0.70;;;19.80;22.40;;;;;;5073491;28;20186;-50
2021/03/20 09:01:35;;;;;;;0.80;0.80;;;20.20;22.70;;;;;;5073344;28;20193;-51
2021/03/20 09:04:04;;;;;;;1.20;1.10;;;19.90;22.30;;;;;;5072483;28;20178;-50
2021/03/20 09:06:46;;;;;;;0.98;0.80;;;19.90;22.00;;;;;;5071967;28;20170;-50
2021/03/20 09:09:41;;;;;;;1.00;0.90;;;20.00;22.10;;;;;;5072919;28;20571;-50
2021/03/20 09:12:13;;;;;;;1.05;0.90;;;20.20;22.00;;;;;;5073216;28;20243;-51
2021/03/20 09:14:43;;;;;;;1.10;0.90;;;20.30;21.80;;;;;;5071854;28;20153;-50
2021/03/20 09:17:31;;;;;;;0.80;0.80;;;20.40;21.60;;;;;;5073289;28;20174;-51
2021/03/20 09:20:05;;;;;;;1.40;1.30;;;20.60;21.50;;;;;;5073180;28;20230;-51
2021/03/20 09:22:35;;;;;;;0.93;0.82;;;20.70;21.40;;;;;;5072925;28;20153;-51
2021/03/20 09:25:10;;;;;;;1.05;0.90;;;20.70;21.30;;;;;;5072632;28;20206;-50
2021/03/20 09:27:58;;;;;;;0.63;0.60;;;20.80;21.00;;;;;;5072980;28;20225;-52
2021/03/20 09:30:32;;;;;;;1.40;1.00;;;20.90;20.90;;;;;;5072519;28;20601;-51
2021/03/20 09:32:59;;;;;;;0.68;0.60;;;20.90;20.90;;;;;;5073034;28;20182;-51
2021/03/20 09:35:36;;;;;;;1.10;1.00;;;21.00;20.90;;;;;;5072639;28;20146;-51
2021/03/20 09:38:04;;;;;;;1.13;1.02;;;21.80;21.50;;;;;;5072828;28;20154;-50
2021/03/20 09:40:50;;;;;;;1.08;0.73;;;21.10;21.00;;;;;;5073002;28;20521;-49
2021/03/20 09:43:20;;;;;;;1.10;0.95;;;21.10;21.00;;;;;;5073040;28;20513;-51
2021/03/20 09:45:47;;;;;;;1.00;0.90;;;21.10;21.00;;;;;;5072470;28;20150;-50
2021/03/20 09:48:42;;;;;;;1.05;0.88;;;21.10;21.00;;;;;;5072666;28;20184;-51
2021/03/20 09:51:45;;;;;;;1.15;1.05;;;21.10;21.00;;;;;;5072650;28;20154;-51
2021/03/20 09:54:42;;;;;;;1.05;0.95;;;21.20;21.10;;;;;;5072260;28;20151;-51
2021/03/20 09:57:12;;;;;;;0.88;0.85;;;21.20;21.00;;;;;;5072320;28;20315;-51
2021/03/20 09:59:48;;;;;;;1.70;0.98;;;21.30;20.90;;;;;;5092593;28;20157;-50
2021/03/20 10:02:21;;;;;;;1.15;1.05;;;21.40;20.80;;;;;;5091052;28;20173;-51
2021/03/20 10:04:57;;;;;;;1.45;1.35;;;21.40;20.70;;;;;;5086776;28;20251;-51
2021/03/20 10:07:23;;;;;;;0.95;0.95;;;21.50;20.60;;;;;;5081081;28;20190;-51
2021/03/20 10:10:27;;;;;;;0.80;0.70;;;21.60;20.60;;;;;;5091602;28;20162;-51
2021/03/20 10:13:13;;;;;;;1.50;1.10;;;21.60;20.50;;;;;;5082251;28;20173;-50
2021/03/20 10:15:58;;;;;;;1.13;0.93;;;21.60;20.40;;;;;;5085296;28;20170;-51
2021/03/20 10:18:28;;;;;;;1.55;1.00;;;21.70;20.40;;;;;;5091167;28;20169;-51
2021/03/20 10:21:02;;;;;;;0.93;0.93;;;21.70;20.30;;;;;;5082041;28;20197;-50
2021/03/20 10:23:46;;;;;;;0.90;0.80;;;21.80;20.30;;;;;;5090267;28;20177;-50
2021/03/20 10:26:36;;;;;;;0.73;0.73;;;21.80;20.20;;;;;;5092715;28;20237;-51
2021/03/20 10:29:05;;;;;;;1.10;1.00;;;21.90;20.20;;;;;;5081513;28;20703;-51
2021/03/20 10:31:39;;;;;;;1.23;1.13;;;21.90;20.10;;;;;;5095199;28;20588;-52
2021/03/20 10:34:10;;;;;;;1.10;1.00;;;21.90;20.00;;;;;;5076152;28;20174;-51
2021/03/20 10:36:40;;;;;;;1.02;0.93;;;22.00;20.10;;;;;;5079435;28;20185;-51
2021/03/20 10:39:31;;;;;;;0.80;0.77;;;22.00;20.00;;;;;;5093784;28;20173;-50
2021/03/20 10:42:15;;;;;;;1.27;0.80;;;22.10;20.00;;;;;;5084777;28;20215;-51
2021/03/20 10:44:48;;;;;;;0.80;0.80;;;22.10;19.90;;;;;;5085202;28;20174;-51
2021/03/20 10:47:37;;;;;;;1.15;0.80;;;22.20;19.90;;;;;;5076160;28;20161;-50
2021/03/20 10:50:27;;;;;;;1.20;1.05;;;22.20;19.80;;;;;;5091359;28;20170;-51
2021/03/20 10:52:56;;;;;;;0.90;0.90;;;22.30;19.80;;;;;;5088712;28;20277;-51
2021/03/20 10:55:29;;;;;;;0.82;0.63;;;22.30;19.80;;;;;;5095006;28;20277;-51
2021/03/20 10:57:56;;;;;;;1.00;0.80;;;22.30;20.20;;;;;;5093185;28;20170;-51
2021/03/20 11:00:42;;;;;;;3.58;1.10;;;22.40;19.70;;;;;;5094950;28;20220;-53
2021/03/20 11:03:09;;;;;;;1.20;1.05;;;22.40;19.60;;;;;;5090235;28;20177;-51
2021/03/20 11:05:41;;;;;;;1.55;0.80;;;22.50;19.60;;;;;;5089978;28;20191;-50
2021/03/20 11:08:10;;;;;;;1.85;1.40;;;;;;;;;;5091326;28;20178;-52
2021/03/20 11:10:39;;;;;;;1.65;0.90;;;22.50;19.20;;;;;;5083416;28;20171;-51
2021/03/20 11:13:19;;;;;;;1.50;1.10;;;22.60;19.60;;;;;;5084200;28;20240;-51
2021/03/20 11:15:51;;;;;;;1.45;1.35;;;22.60;19.60;;;;;;5089138;28;20169;-52
2021/03/20 11:18:24;;;;;;;1.05;0.95;;;22.60;19.60;;;;;;5088290;28;20601;-51
2021/03/20 11:20:50;;;;;;;1.13;1.02;;;22.60;19.50;;;;;;5091775;28;20177;-51
2021/03/20 11:23:36;;;;;;;1.50;1.27;;;22.60;19.50;;;;;;5087307;28;20200;-51
2021/03/20 11:26:24;;;;;;;1.10;1.00;;;22.70;19.50;;;;;;5090274;28;20575;-50
2021/03/20 11:28:54;;;;;;;1.52;0.85;;;22.70;19.50;;;;;;5093163;28;20754;-53
2021/03/20 11:31:21;;;;;;;0.90;0.90;;;22.70;19.40;;;;;;5091217;28;20578;-51
2021/03/20 11:33:48;;;;;;;1.13;0.80;;;22.70;19.40;;;;;;5091896;28;20169;-51
2021/03/20 11:36:15;;;;;;;1.30;1.20;;;;;;;;;;5103540;28;20648;-51
2021/03/20 11:38:41;;;;;;;1.35;1.00;;;22.80;18.90;;;;;;5092169;28;20219;-50
2021/03/20 11:41:09;;;;;;;1.10;0.93;;;22.80;19.40;;;;;;5092825;28;20186;-52
2021/03/20 11:43:48;;;;;;;1.00;0.90;;;22.80;19.30;;;;;;5087162;28;20471;-50
2021/03/20 11:46:26;;;;;;;1.73;1.10;;;22.80;19.30;;;;;;5091244;28;20165;-51
2021/03/20 11:49:01;;;;;;;1.00;0.90;;;22.80;19.20;;;;;;5089060;28;20204;-51
2021/03/20 11:51:28;;;;;;;1.25;1.15;;;22.90;19.30;;;;;;5089508;28;20220;-51
2021/03/20 11:54:00;;;;;;;1.25;1.15;;;22.90;19.20;;;;;;5090728;28;20392;-52
2021/03/20 11:56:31;;;;;;;2.00;1.40;;;22.90;19.20;;;;;;5091080;28;20190;-50
2021/03/20 11:59:00;;;;;;;1.50;1.10;;;22.90;19.20;;;;;;5090011;28;20494;-52
2021/03/20 12:01:43;;;;;;;2.03;1.50;;;22.90;19.20;;;;;;5091721;28;20253;-52
2021/03/20 12:04:09;;;;;;;1.17;1.08;;;23.00;19.10;;;;;;5091182;28;20223;-51
2021/03/20 12:06:37;;;;;;;1.60;1.40;;;23.00;19.10;;;;;;5093920;28;20218;-51
2021/03/20 12:09:22;;;;;;;1.80;1.40;;;23.00;19.00;;;;;;5090133;28;20284;-51
2021/03/20 12:11:48;;;;;;;1.70;1.60;;;23.00;18.90;;;;;;5092166;28;20219;-51
2021/03/20 12:14:49;;;;;;;3.47;1.33;;;23.00;18.80;;;;;;5083568;28;20552;-50
2021/03/20 12:17:22;;;;;;;1.77;1.40;;;23.00;18.60;;;;;;5089540;28;20253;-50
2021/03/20 12:20:09;;;;;;;1.30;1.20;;;23.00;18.30;;;;;;5094397;28;20223;-50
2021/03/20 12:22:54;;;;;;;3.38;1.70;;;23.00;18.30;;;;;;5085190;28;20202;-53
2021/03/20 12:25:19;;;;;;;6.88;2.80;;;23.10;18.30;;;;;;5072600;28;20151;-53
2021/03/20 12:27:49;;;;;;;7.57;2.50;;;23.10;18.10;;;;;;5073968;28;20237;-52
2021/03/20 12:30:29;;;;;;;2.33;2.00;;;23.00;17.80;;;;;;5072012;28;20166;-53
2021/03/20 12:33:15;;;;;;;4.05;2.38;;;23.00;18.20;;;;;;5073803;28;20205;-53
2021/03/20 12:35:46;;;;;;;6.85;2.75;;;22.90;17.40;;;;;;5072468;28;20180;-52
2021/03/20 12:38:25;;;;;;;4.20;2.33;;;22.90;17.10;;;;;;5073836;28;20158;-52
2021/03/20 12:40:59;;;;;;;4.97;1.83;;;22.90;17.20;;;;;;5073890;28;20667;-53
2021/03/20 12:43:32;;;;;;;4.15;2.38;;;22.80;16.70;;;;;;5072260;28;20167;-53
2021/03/20 12:46:07;;;;;;;3.38;1.90;;;22.80;16.60;;;;;;5073494;28;20224;-52
2021/03/20 12:48:36;;;;;;;3.83;1.92;;;22.80;16.70;;;;;;5073249;28;20184;-53
2021/03/20 12:51:07;;;;;;;7.40;2.55;;;22.80;16.70;;;;;;5073719;28;20178;-51
2021/03/20 12:53:33;;;;;;;3.95;2.70;;;22.80;16.50;;;;;;5073400;28;20581;-51
2021/03/20 12:55:59;;;;;;;4.50;2.53;;;22.90;16.20;;;;;;5073585;28;20771;-52
2021/03/20 12:58:24;;;;;;;5.37;2.53;;;23.00;16.40;;;;;;5073453;28;20244;-51
2021/03/20 13:00:52;;;;;;;3.63;2.00;;;23.00;16.40;;;;;;5073031;28;20242;-52
2021/03/20 13:03:20;;;;;;;3.13;2.40;;;23.00;16.00;;;;;;5090507;28;20186;-52
2021/03/20 13:05:47;;;;;;;2.80;2.20;;;23.10;16.10;;;;;;5093309;28;20156;-52
2021/03/20 13:08:12;;;;;;;4.70;2.45;;;23.10;16.40;;;;;;5093484;28;20242;-51
2021/03/20 13:10:42;;;;;;;4.50;1.87;;;23.00;16.10;;;;;;5093576;28;20154;-51
2021/03/20 13:13:11;;;;;;;3.22;2.20;;;23.10;16.10;;;;;;5092202;28;20378;-54
2021/03/20 13:15:36;;;;;;;3.40;2.75;;;23.00;15.70;;;;;;5093013;28;20631;-52
2021/03/20 13:18:02;;;;;;;3.03;2.10;;;23.10;16.00;;;;;;5092260;28;20181;-51
2021/03/20 13:20:31;;;;;;;3.60;1.93;;;23.10;16.40;;;;;;5093323;28;20845;-52
2021/03/20 13:22:57;;;;;;;4.07;2.60;;;23.10;16.80;;;;;;5092214;28;20408;-51
2021/03/20 13:25:43;;;;;;;2.30;2.10;;;23.10;16.60;;;;;;5093078;28;20236;-52
2021/03/20 13:28:12;;;;;;;2.80;2.10;;;23.10;16.50;;;;;;5092870;28;20667;-52
2021/03/20 13:30:42;;;;;;;8.52;2.47;;;23.10;16.60;;;;;;5091521;28;20173;-56
2021/03/20 13:33:09;;;;;;;4.68;2.92;;;23.00;16.60;;;;;;5093095;28;20141;-50